sensor_id;sensor_type;location;lat;lon;timestamp;temperature;humidity
10768;DHT22;5436;51.162;4.162;2022-08-18T11:48:08;36.20;42.50
10768;DHT22;5436;51.162;4.162;2022-08-18T11:50:45;28.20;99.90
10768;DHT22;5436;51.162;4.162;2022-08-18T11:53:22;28.20;99.90
10768;DHT22;5436;51.162;4.162;2022-08-18T11:56:05;28.20;99.90
10768;DHT22;5436;51.162;4.162;2022-08-18T11:58:44;28.20;99.90
10768;DHT22;5436;51.162;4.162;2022-08-18T12:01:37;28.10;99.90
10768;DHT22;5436;51.162;4.162;2022-08-18T12:04:21;28.20;99.90
10768;DHT22;5436;51.162;4.162;2022-08-18T12:07:00;27.90;99.90
10768;DHT22;5436;51.162;4.162;2022-08-18T12:09:39;28.10;99.90
10768;DHT22;5436;51.162;4.162;2022-08-18T12:12:15;28.40;99.90
10768;DHT22;5436;51.162;4.162;2022-08-18T12:14:53;28.20;99.90
10768;DHT22;5436;51.162;4.162;2022-08-18T12:17:23;28.10;99.90
10768;DHT22;5436;51.162;4.162;2022-08-18T12:19:55;28.00;99.90
10768;DHT22;5436;51.162;4.162;2022-08-18T12:22:29;27.90;99.90
10768;DHT22;5436;51.162;4.162;2022-08-18T12:25:03;28.20;99.90
10768;DHT22;5436;51.162;4.162;2022-08-18T12:27:32;28.50;99.90
10768;DHT22;5436;51.162;4.162;2022-08-18T12:30:03;28.60;99.90
10768;DHT22;5436;51.162;4.162;2022-08-18T12:32:34;28.50;99.90
10768;DHT22;5436;51.162;4.162;2022-08-18T12:35:08;27.90;99.90
10768;DHT22;5436;51.162;4.162;2022-08-18T12:37:41;28.10;99.90
10768;DHT22;5436;51.162;4.162;2022-08-18T12:40:11;28.30;99.90
10768;DHT22;5436;51.162;4.162;2022-08-18T12:42:41;28.60;99.90
10768;DHT22;5436;51.162;4.162;2022-08-18T12:45:10;28.90;99.90
10768;DHT22;5436;51.162;4.162;2022-08-18T12:47:40;28.80;99.90
10768;DHT22;5436;51.162;4.162;2022-08-18T12:50:12;28.70;99.90
10768;DHT22;5436;51.162;4.162;2022-08-18T12:52:41;28.30;99.90
10768;DHT22;5436;51.162;4.162;2022-08-18T12:55:10;28.20;99.90
10768;DHT22;5436;51.162;4.162;2022-08-18T12:57:39;28.10;99.90
10768;DHT22;5436;51.162;4.162;2022-08-18T13:00:09;27.90;99.90
10768;DHT22;5436;51.162;4.162;2022-08-18T13:02:39;27.40;99.90
10768;DHT22;5436;51.162;4.162;2022-08-18T13:05:11;27.40;99.90
10768;DHT22;5436;51.162;4.162;2022-08-18T13:07:40;27.10;99.90
10768;DHT22;5436;51.162;4.162;2022-08-18T13:10:11;26.90;99.90
10768;DHT22;5436;51.162;4.162;2022-08-18T13:12:40;27.00;99.90
10768;DHT22;5436;51.162;4.162;2022-08-18T13:15:10;27.10;99.90
10768;DHT22;5436;51.162;4.162;2022-08-18T13:17:40;27.20;99.90
10768;DHT22;5436;51.162;4.162;2022-08-18T13:20:14;27.00;99.90
10768;DHT22;5436;51.162;4.162;2022-08-18T13:22:44;27.00;99.90
10768;DHT22;5436;51.162;4.162;2022-08-18T13:25:14;27.20;99.90
10768;DHT22;5436;51.162;4.162;2022-08-18T13:27:44;27.00;99.90
10768;DHT22;5436;51.162;4.162;2022-08-18T13:30:17;27.20;99.90
10768;DHT22;5436;51.162;4.162;2022-08-18T13:32:48;27.10;99.90
10768;DHT22;5436;51.162;4.162;2022-08-18T13:35:20;27.40;99.90
10768;DHT22;5436;51.162;4.162;2022-08-18T13:37:50;27.20;99.90
10768;DHT22;5436;51.162;4.162;2022-08-18T13:40:22;27.00;99.90
10768;DHT22;5436;51.162;4.162;2022-08-18T13:42:51;27.00;99.90
10768;DHT22;5436;51.162;4.162;2022-08-18T13:45:21;27.10;99.90
10768;DHT22;5436;51.162;4.162;2022-08-18T13:47:50;27.00;99.90
10768;DHT22;5436;51.162;4.162;2022-08-18T13:50:22;27.00;99.90
10768;DHT22;5436;51.162;4.162;2022-08-18T13:52:52;27.00;99.90
10768;DHT22;5436;51.162;4.162;2022-08-18T13:55:21;27.30;99.90
10768;DHT22;5436;51.162;4.162;2022-08-18T13:57:54;27.60;99.90
10768;DHT22;5436;51.162;4.162;2022-08-18T14:00:25;27.60;99.90
10768;DHT22;5436;51.162;4.162;2022-08-18T14:02:57;27.90;99.90
10768;DHT22;5436;51.162;4.162;2022-08-18T14:05:30;27.90;99.90
10768;DHT22;5436;51.162;4.162;2022-08-18T14:07:59;28.10;99.90
10768;DHT22;5436;51.162;4.162;2022-08-18T14:10:28;28.50;99.90
10768;DHT22;5436;51.162;4.162;2022-08-18T14:13:00;27.90;99.90
10768;DHT22;5436;51.162;4.162;2022-08-18T14:15:32;27.80;99.90
10768;DHT22;5436;51.162;4.162;2022-08-18T14:18:05;28.10;99.90
10768;DHT22;5436;51.162;4.162;2022-08-18T14:20:38;28.50;99.90
10768;DHT22;5436;51.162;4.162;2022-08-18T14:23:27;28.50;99.90
10768;DHT22;5436;51.162;4.162;2022-08-18T14:26:10;28.20;99.90
10768;DHT22;5436;51.162;4.162;2022-08-18T14:28:51;28.40;99.90
10768;DHT22;5436;51.162;4.162;2022-08-18T14:31:21;28.50;99.90
10768;DHT22;5436;51.162;4.162;2022-08-18T14:33:51;28.20;99.90
10768;DHT22;5436;51.162;4.162;2022-08-18T14:36:23;27.80;99.90
10768;DHT22;5436;51.162;4.162;2022-08-18T14:38:51;27.70;99.90
10768;DHT22;5436;51.162;4.162;2022-08-18T14:41:22;27.50;99.90
10768;DHT22;5436;51.162;4.162;2022-08-18T14:43:52;27.60;99.90
10768;DHT22;5436;51.162;4.162;2022-08-18T14:46:21;27.60;99.90
10768;DHT22;5436;51.162;4.162;2022-08-18T14:48:52;27.80;99.90
10768;DHT22;5436;51.162;4.162;2022-08-18T14:51:24;27.90;99.90
10768;DHT22;5436;51.162;4.162;2022-08-18T14:53:56;27.80;99.90
10768;DHT22;5436;51.162;4.162;2022-08-18T14:56:26;27.80;99.90
10768;DHT22;5436;51.162;4.162;2022-08-18T14:58:54;27.90;99.90
10768;DHT22;5436;51.162;4.162;2022-08-18T15:01:24;28.00;99.90
10768;DHT22;5436;51.162;4.162;2022-08-18T15:03:53;27.90;99.90
10768;DHT22;5436;51.162;4.162;2022-08-18T15:06:25;28.10;99.90
10768;DHT22;5436;51.162;4.162;2022-08-18T15:08:55;28.00;99.90
10768;DHT22;5436;51.162;4.162;2022-08-18T15:11:24;28.10;99.90
10768;DHT22;5436;51.162;4.162;2022-08-18T15:13:53;28.10;99.90
10768;DHT22;5436;51.162;4.162;2022-08-18T15:16:22;28.20;99.90
10768;DHT22;5436;51.162;4.162;2022-08-18T15:18:53;28.40;99.90
10768;DHT22;5436;51.162;4.162;2022-08-18T15:21:25;28.10;99.90
10768;DHT22;5436;51.162;4.162;2022-08-18T15:24:09;28.40;99.90
10768;DHT22;5436;51.162;4.162;2022-08-18T15:26:51;28.40;99.90
10768;DHT22;5436;51.162;4.162;2022-08-18T15:29:21;28.30;99.90
10768;DHT22;5436;51.162;4.162;2022-08-18T15:31:50;28.20;99.90
10768;DHT22;5436;51.162;4.162;2022-08-18T15:34:19;27.90;99.90
10768;DHT22;5436;51.162;4.162;2022-08-18T15:36:56;27.90;99.90
10768;DHT22;5436;51.162;4.162;2022-08-18T15:39:26;27.80;99.90
10768;DHT22;5436;51.162;4.162;2022-08-18T15:41:55;27.80;99.90
10768;DHT22;5436;51.162;4.162;2022-08-18T15:44:25;27.70;99.90
10768;DHT22;5436;51.162;4.162;2022-08-18T15:46:57;27.50;99.90
10768;DHT22;5436;51.162;4.162;2022-08-18T15:49:26;27.70;99.90
10768;DHT22;5436;51.162;4.162;2022-08-18T15:51:59;27.40;99.90
10768;DHT22;5436;51.162;4.162;2022-08-18T15:54:29;27.30;99.90
10768;DHT22;5436;51.162;4.162;2022-08-18T15:56:58;27.30;99.90
10768;DHT22;5436;51.162;4.162;2022-08-18T15:59:27;27.50;99.90
10768;DHT22;5436;51.162;4.162;2022-08-18T16:01:56;27.40;99.90
10768;DHT22;5436;51.162;4.162;2022-08-18T16:04:26;27.40;99.90
10768;DHT22;5436;51.162;4.162;2022-08-18T16:06:55;27.20;99.90
10768;DHT22;5436;51.162;4.162;2022-08-18T16:09:26;27.20;99.90
10768;DHT22;5436;51.162;4.162;2022-08-18T16:11:55;27.40;99.90
10768;DHT22;5436;51.162;4.162;2022-08-18T16:14:24;27.50;99.90
10768;DHT22;5436;51.162;4.162;2022-08-18T16:16:53;27.80;99.90
10768;DHT22;5436;51.162;4.162;2022-08-18T16:19:22;27.70;99.90
10768;DHT22;5436;51.162;4.162;2022-08-18T16:21:50;27.20;99.90
10768;DHT22;5436;51.162;4.162;2022-08-18T16:24:22;27.20;99.90
10768;DHT22;5436;51.162;4.162;2022-08-18T16:26:56;27.10;99.90
10768;DHT22;5436;51.162;4.162;2022-08-18T16:29:25;27.20;99.90
10768;DHT22;5436;51.162;4.162;2022-08-18T16:31:54;27.50;99.90
10768;DHT22;5436;51.162;4.162;2022-08-18T16:34:23;27.20;99.90
10768;DHT22;5436;51.162;4.162;2022-08-18T16:36:53;27.20;99.90
10768;DHT22;5436;51.162;4.162;2022-08-18T16:39:22;27.10;99.90
10768;DHT22;5436;51.162;4.162;2022-08-18T16:42:01;27.00;99.90
10768;DHT22;5436;51.162;4.162;2022-08-18T16:44:31;26.70;99.90
10768;DHT22;5436;51.162;4.162;2022-08-18T16:47:03;26.80;99.90
10768;DHT22;5436;51.162;4.162;2022-08-18T16:49:32;26.70;99.90
10768;DHT22;5436;51.162;4.162;2022-08-18T16:52:01;26.90;99.90
10768;DHT22;5436;51.162;4.162;2022-08-18T16:54:32;27.00;99.90
10768;DHT22;5436;51.162;4.162;2022-08-18T16:57:05;26.90;99.90
10768;DHT22;5436;51.162;4.162;2022-08-18T16:59:34;27.10;99.90
10768;DHT22;5436;51.162;4.162;2022-08-18T17:02:16;27.00;99.90
10768;DHT22;5436;51.162;4.162;2022-08-18T17:05:01;26.70;99.90
10768;DHT22;5436;51.162;4.162;2022-08-18T17:07:33;26.70;99.90
10768;DHT22;5436;51.162;4.162;2022-08-18T17:10:03;26.90;99.90
10768;DHT22;5436;51.162;4.162;2022-08-18T17:12:35;26.80;99.90
10768;DHT22;5436;51.162;4.162;2022-08-18T17:15:04;26.70;99.90
10768;DHT22;5436;51.162;4.162;2022-08-18T17:17:34;26.40;99.90
10768;DHT22;5436;51.162;4.162;2022-08-18T17:20:04;26.40;99.90
10768;DHT22;5436;51.162;4.162;2022-08-18T17:22:33;26.40;99.90
10768;DHT22;5436;51.162;4.162;2022-08-18T17:25:03;26.30;99.90
10768;DHT22;5436;51.162;4.162;2022-08-18T17:27:36;26.30;99.90
10768;DHT22;5436;51.162;4.162;2022-08-18T17:30:11;26.10;99.90
10768;DHT22;5436;51.162;4.162;2022-08-18T17:32:50;26.00;99.90
10768;DHT22;5436;51.162;4.162;2022-08-18T17:35:25;25.90;99.90
10768;DHT22;5436;51.162;4.162;2022-08-18T17:37:58;25.80;99.90
10768;DHT22;5436;51.162;4.162;2022-08-18T17:40:34;25.60;99.90
10768;DHT22;5436;51.162;4.162;2022-08-18T17:43:10;25.50;99.90
10768;DHT22;5436;51.162;4.162;2022-08-18T17:45:40;25.50;99.90
10768;DHT22;5436;51.162;4.162;2022-08-18T17:48:15;25.60;99.90
10768;DHT22;5436;51.162;4.162;2022-08-18T17:50:49;25.50;99.90
10768;DHT22;5436;51.162;4.162;2022-08-18T17:53:32;25.30;99.90
10768;DHT22;5436;51.162;4.162;2022-08-18T17:56:05;25.10;99.90
10768;DHT22;5436;51.162;4.162;2022-08-18T17:58:43;25.00;99.90
10768;DHT22;5436;51.162;4.162;2022-08-18T18:01:15;24.90;99.90
10768;DHT22;5436;51.162;4.162;2022-08-18T18:03:45;24.80;99.90
10768;DHT22;5436;51.162;4.162;2022-08-18T18:06:21;24.70;99.90
10768;DHT22;5436;51.162;4.162;2022-08-18T18:08:57;24.70;99.90
10768;DHT22;5436;51.162;4.162;2022-08-18T18:11:29;24.60;99.90
10768;DHT22;5436;51.162;4.162;2022-08-18T18:14:22;24.50;99.90
10768;DHT22;5436;51.162;4.162;2022-08-18T18:17:04;24.50;99.90
10768;DHT22;5436;51.162;4.162;2022-08-18T18:19:35;24.30;99.90
10768;DHT22;5436;51.162;4.162;2022-08-18T18:22:08;24.20;99.90
10768;DHT22;5436;51.162;4.162;2022-08-18T18:24:38;24.20;99.90
10768;DHT22;5436;51.162;4.162;2022-08-18T18:27:27;24.20;99.90
10768;DHT22;5436;51.162;4.162;2022-08-18T18:30:01;24.10;99.90
10768;DHT22;5436;51.162;4.162;2022-08-18T18:32:33;24.00;99.90
10768;DHT22;5436;51.162;4.162;2022-08-18T18:35:15;24.00;99.90
10768;DHT22;5436;51.162;4.162;2022-08-18T18:37:49;23.90;99.90
10768;DHT22;5436;51.162;4.162;2022-08-18T18:40:30;23.80;99.90
10768;DHT22;5436;51.162;4.162;2022-08-18T18:43:19;23.80;99.90
10768;DHT22;5436;51.162;4.162;2022-08-18T18:49:02;23.70;99.90
10768;DHT22;5436;51.162;4.162;2022-08-18T18:51:40;23.60;99.90
10768;DHT22;5436;51.162;4.162;2022-08-18T18:54:21;23.50;99.90
10768;DHT22;5436;51.162;4.162;2022-08-18T18:56:55;23.50;99.90
10768;DHT22;5436;51.162;4.162;2022-08-18T18:59:40;23.50;99.90
10768;DHT22;5436;51.162;4.162;2022-08-18T19:02:19;23.30;99.90
10768;DHT22;5436;51.162;4.162;2022-08-18T19:04:56;23.30;99.90
10768;DHT22;5436;51.162;4.162;2022-08-18T19:07:45;23.30;99.90
10768;DHT22;5436;51.162;4.162;2022-08-18T19:10:24;23.20;99.90
10768;DHT22;5436;51.162;4.162;2022-08-18T19:12:59;23.10;99.90
10768;DHT22;5436;51.162;4.162;2022-08-18T19:15:30;22.90;99.90
10768;DHT22;5436;51.162;4.162;2022-08-18T19:18:13;22.90;99.90
10768;DHT22;5436;51.162;4.162;2022-08-18T19:20:48;22.80;99.90
10768;DHT22;5436;51.162;4.162;2022-08-18T19:23:27;22.70;99.90
10768;DHT22;5436;51.162;4.162;2022-08-18T19:25:59;22.70;99.90
10768;DHT22;5436;51.162;4.162;2022-08-18T19:28:35;22.70;99.90
10768;DHT22;5436;51.162;4.162;2022-08-18T19:31:10;22.60;99.90
10768;DHT22;5436;51.162;4.162;2022-08-18T19:33:47;22.50;99.90
10768;DHT22;5436;51.162;4.162;2022-08-18T19:36:26;22.50;99.90
10768;DHT22;5436;51.162;4.162;2022-08-18T19:39:01;22.40;99.90
10768;DHT22;5436;51.162;4.162;2022-08-18T19:41:36;22.30;99.90
10768;DHT22;5436;51.162;4.162;2022-08-18T19:47:12;22.10;99.90
10768;DHT22;5436;51.162;4.162;2022-08-18T19:49:52;22.00;99.90
10768;DHT22;5436;51.162;4.162;2022-08-18T19:52:37;21.90;99.90
10768;DHT22;5436;51.162;4.162;2022-08-18T19:55:22;21.80;99.90
10768;DHT22;5436;51.162;4.162;2022-08-18T19:58:19;21.70;99.90
10768;DHT22;5436;51.162;4.162;2022-08-18T20:00:55;21.70;99.90
10768;DHT22;5436;51.162;4.162;2022-08-18T20:03:34;21.60;99.90
10768;DHT22;5436;51.162;4.162;2022-08-18T20:06:20;21.50;99.90
10768;DHT22;5436;51.162;4.162;2022-08-18T20:09:08;21.50;99.90
10768;DHT22;5436;51.162;4.162;2022-08-18T20:12:13;21.40;99.90
10768;DHT22;5436;51.162;4.162;2022-08-18T20:14:59;21.30;99.90
10768;DHT22;5436;51.162;4.162;2022-08-18T20:17:28;21.30;99.90
10768;DHT22;5436;51.162;4.162;2022-08-18T20:20:13;21.20;99.90
10768;DHT22;5436;51.162;4.162;2022-08-18T20:22:46;21.20;99.90
10768;DHT22;5436;51.162;4.162;2022-08-18T20:25:34;21.20;99.90
10768;DHT22;5436;51.162;4.162;2022-08-18T20:28:22;21.20;99.90
10768;DHT22;5436;51.162;4.162;2022-08-18T20:30:57;21.20;99.90
10768;DHT22;5436;51.162;4.162;2022-08-18T20:33:30;21.20;99.90
10768;DHT22;5436;51.162;4.162;2022-08-18T20:36:12;21.10;99.90
10768;DHT22;5436;51.162;4.162;2022-08-18T20:38:47;21.10;99.90
10768;DHT22;5436;51.162;4.162;2022-08-18T20:41:40;21.10;99.90
10768;DHT22;5436;51.162;4.162;2022-08-18T20:44:21;21.10;99.90
10768;DHT22;5436;51.162;4.162;2022-08-18T20:47:02;21.00;99.90
10768;DHT22;5436;51.162;4.162;2022-08-18T20:49:46;21.00;99.90
10768;DHT22;5436;51.162;4.162;2022-08-18T20:52:31;21.10;99.90
10768;DHT22;5436;51.162;4.162;2022-08-18T20:55:13;21.10;99.90
10768;DHT22;5436;51.162;4.162;2022-08-18T20:57:44;21.10;99.90
10768;DHT22;5436;51.162;4.162;2022-08-18T21:00:16;21.10;99.90
10768;DHT22;5436;51.162;4.162;2022-08-18T21:02:49;21.10;99.90
10768;DHT22;5436;51.162;4.162;2022-08-18T21:05:24;21.00;99.90
10768;DHT22;5436;51.162;4.162;2022-08-18T21:08:01;20.90;99.90
10768;DHT22;5436;51.162;4.162;2022-08-18T21:10:46;21.00;99.90
10768;DHT22;5436;51.162;4.162;2022-08-18T21:13:27;21.00;99.90
10768;DHT22;5436;51.162;4.162;2022-08-18T21:15:57;21.00;99.90
10768;DHT22;5436;51.162;4.162;2022-08-18T21:18:27;21.00;99.90
10768;DHT22;5436;51.162;4.162;2022-08-18T21:21:02;20.90;99.90
10768;DHT22;5436;51.162;4.162;2022-08-18T21:23:32;20.90;99.90
10768;DHT22;5436;51.162;4.162;2022-08-18T21:26:07;20.90;99.90
10768;DHT22;5436;51.162;4.162;2022-08-18T21:28:46;20.90;99.90
10768;DHT22;5436;51.162;4.162;2022-08-18T21:31:24;20.90;99.90
10768;DHT22;5436;51.162;4.162;2022-08-18T21:33:55;20.90;99.90
10768;DHT22;5436;51.162;4.162;2022-08-18T21:36:26;20.90;99.90
10768;DHT22;5436;51.162;4.162;2022-08-18T21:38:59;20.80;99.90
10768;DHT22;5436;51.162;4.162;2022-08-18T21:41:32;20.80;99.90
10768;DHT22;5436;51.162;4.162;2022-08-18T21:44:05;20.70;99.90
10768;DHT22;5436;51.162;4.162;2022-08-18T21:46:35;20.70;99.90
10768;DHT22;5436;51.162;4.162;2022-08-18T21:49:04;20.60;99.90
10768;DHT22;5436;51.162;4.162;2022-08-18T21:51:42;20.60;99.90
10768;DHT22;5436;51.162;4.162;2022-08-18T21:54:15;20.50;99.90
10768;DHT22;5436;51.162;4.162;2022-08-18T21:57:18;20.50;99.90
10768;DHT22;5436;51.162;4.162;2022-08-18T22:00:21;20.50;99.90
10768;DHT22;5436;51.162;4.162;2022-08-18T22:03:13;20.50;99.90
10768;DHT22;5436;51.162;4.162;2022-08-18T22:05:44;20.50;99.90
10768;DHT22;5436;51.162;4.162;2022-08-18T22:08:16;20.50;99.90
10768;DHT22;5436;51.162;4.162;2022-08-18T22:11:04;20.50;99.90
10768;DHT22;5436;51.162;4.162;2022-08-18T22:13:50;20.40;99.90
10768;DHT22;5436;51.162;4.162;2022-08-18T22:16:35;20.40;99.90
10768;DHT22;5436;51.162;4.162;2022-08-18T22:19:21;20.40;99.90
10768;DHT22;5436;51.162;4.162;2022-08-18T22:21:57;20.40;99.90
10768;DHT22;5436;51.162;4.162;2022-08-18T22:24:52;20.40;99.90
10768;DHT22;5436;51.162;4.162;2022-08-18T22:27:20;20.30;99.90
10768;DHT22;5436;51.162;4.162;2022-08-18T22:29:54;20.30;99.90
10768;DHT22;5436;51.162;4.162;2022-08-18T22:32:26;20.20;99.90
10768;DHT22;5436;51.162;4.162;2022-08-18T22:34:56;20.20;99.90
10768;DHT22;5436;51.162;4.162;2022-08-18T22:37:27;20.20;99.90
10768;DHT22;5436;51.162;4.162;2022-08-18T22:40:00;20.20;99.90
10768;DHT22;5436;51.162;4.162;2022-08-18T22:42:31;20.10;99.90
10768;DHT22;5436;51.162;4.162;2022-08-18T22:45:07;20.20;99.90
10768;DHT22;5436;51.162;4.162;2022-08-18T22:47:37;20.10;99.90
10768;DHT22;5436;51.162;4.162;2022-08-18T22:50:07;20.00;99.90
10768;DHT22;5436;51.162;4.162;2022-08-18T22:52:38;20.00;99.90
10768;DHT22;5436;51.162;4.162;2022-08-18T22:55:10;19.80;99.90
10768;DHT22;5436;51.162;4.162;2022-08-18T22:57:40;19.90;99.90
10768;DHT22;5436;51.162;4.162;2022-08-18T23:00:15;19.80;99.90
10768;DHT22;5436;51.162;4.162;2022-08-18T23:02:45;19.80;99.90
10768;DHT22;5436;51.162;4.162;2022-08-18T23:05:15;19.80;99.90
10768;DHT22;5436;51.162;4.162;2022-08-18T23:07:44;19.70;99.90
10768;DHT22;5436;51.162;4.162;2022-08-18T23:10:13;19.70;99.90
10768;DHT22;5436;51.162;4.162;2022-08-18T23:12:43;19.60;99.90
10768;DHT22;5436;51.162;4.162;2022-08-18T23:15:17;19.60;99.90
10768;DHT22;5436;51.162;4.162;2022-08-18T23:17:47;19.70;99.90
10768;DHT22;5436;51.162;4.162;2022-08-18T23:20:17;19.60;99.90
10768;DHT22;5436;51.162;4.162;2022-08-18T23:22:46;19.50;99.90
10768;DHT22;5436;51.162;4.162;2022-08-18T23:25:15;19.60;99.90
10768;DHT22;5436;51.162;4.162;2022-08-18T23:27:45;19.60;99.90
10768;DHT22;5436;51.162;4.162;2022-08-18T23:30:16;19.60;99.90
10768;DHT22;5436;51.162;4.162;2022-08-18T23:32:46;19.40;99.90
10768;DHT22;5436;51.162;4.162;2022-08-18T23:35:15;19.40;99.90
10768;DHT22;5436;51.162;4.162;2022-08-18T23:37:44;19.40;99.90
10768;DHT22;5436;51.162;4.162;2022-08-18T23:40:14;19.40;99.90
10768;DHT22;5436;51.162;4.162;2022-08-18T23:42:44;19.40;99.90
10768;DHT22;5436;51.162;4.162;2022-08-18T23:45:18;19.40;99.90
10768;DHT22;5436;51.162;4.162;2022-08-18T23:47:47;19.20;99.90
10768;DHT22;5436;51.162;4.162;2022-08-18T23:50:19;19.40;99.90
10768;DHT22;5436;51.162;4.162;2022-08-18T23:52:54;19.40;99.90
10768;DHT22;5436;51.162;4.162;2022-08-18T23:55:24;19.50;99.90
10768;DHT22;5436;51.162;4.162;2022-08-18T23:57:53;19.50;99.90
